createdAt,value
2022-09-07T00:01:07.357Z,5.87
2022-09-07T00:03:36.361Z,5.50
2022-09-07T00:06:07.919Z,6.07
2022-09-07T00:08:36.435Z,5.30
2022-09-07T00:11:08.264Z,5.45
2022-09-07T00:13:38.938Z,5.40
2022-09-07T00:16:08.503Z,5.65
2022-09-07T00:18:36.794Z,4.70
2022-09-07T00:21:07.711Z,5.68
2022-09-07T00:23:37.696Z,5.85
2022-09-07T00:26:09.851Z,5.93
2022-09-07T00:28:38.453Z,6.68
2022-09-07T00:31:11.347Z,5.87
2022-09-07T00:33:39.582Z,6.30
2022-09-07T00:36:07.991Z,5.00
2022-09-07T00:38:36.192Z,5.97
2022-09-07T00:41:04.626Z,5.55
2022-09-07T00:43:38.025Z,6.12
2022-09-07T00:46:08.084Z,6.62
2022-09-07T00:48:43.428Z,5.93
2022-09-07T00:51:15.967Z,5.60
2022-09-07T00:53:46.139Z,5.90
2022-09-07T00:56:14.807Z,6.22
2022-09-07T00:58:45.139Z,6.30
2022-09-07T01:01:13.985Z,6.55
2022-09-07T01:03:44.992Z,6.10
2022-09-07T01:06:17.059Z,6.82
2022-09-07T01:08:47.290Z,6.40
2022-09-07T01:11:15.537Z,5.70
2022-09-07T01:13:46.794Z,6.50
2022-09-07T01:16:24.849Z,6.45
2022-09-07T01:19:02.519Z,6.40
2022-09-07T01:21:45.293Z,7.03
2022-09-07T01:24:36.407Z,6.47
2022-09-07T01:27:42.068Z,6.62
2022-09-07T01:30:12.597Z,6.70
2022-09-07T01:33:06.146Z,7.18
2022-09-07T01:35:43.235Z,6.90
2022-09-07T01:38:21.510Z,6.57
2022-09-07T01:40:58.415Z,6.75
2022-09-07T01:43:36.497Z,6.97
2022-09-07T01:46:12.053Z,6.97
2022-09-07T01:48:41.671Z,6.60
2022-09-07T01:51:12.574Z,5.78
2022-09-07T01:53:44.577Z,6.40
2022-09-07T01:56:15.785Z,6.97
2022-09-07T01:58:49.050Z,7.18
2022-09-07T02:01:24.704Z,6.32
2022-09-07T02:03:58.065Z,6.40
2022-09-07T02:06:35.759Z,7.07
2022-09-07T02:09:08.396Z,7.28
2022-09-07T02:11:39.387Z,6.55
2022-09-07T02:14:12.560Z,6.80
2022-09-07T02:16:48.547Z,6.78
2022-09-07T02:19:20.902Z,7.78
2022-09-07T02:21:55.013Z,7.25
2022-09-07T02:24:27.669Z,7.35
2022-09-07T02:26:57.652Z,7.82
2022-09-07T02:29:30.890Z,7.28
2022-09-07T02:31:59.221Z,7.22
2022-09-07T02:34:27.744Z,6.68
2022-09-07T02:36:58.083Z,7.12
2022-09-07T02:39:26.109Z,7.00
2022-09-07T02:41:54.400Z,6.87
2022-09-07T02:44:25.922Z,7.25
2022-09-07T02:47:05.972Z,6.55
2022-09-07T02:49:47.146Z,6.55
2022-09-07T02:52:23.174Z,6.87
2022-09-07T02:55:03.086Z,7.25
2022-09-07T02:57:47.333Z,7.05
2022-09-07T03:00:19.200Z,7.00
2022-09-07T03:02:56.844Z,6.95
2022-09-07T03:05:30.090Z,7.55
2022-09-07T03:08:04.283Z,7.15
2022-09-07T03:10:33.367Z,7.20
2022-09-07T03:13:01.317Z,7.25
2022-09-07T03:15:29.594Z,7.47
2022-09-07T03:17:59.148Z,6.85
2022-09-07T03:20:27.228Z,6.97
2022-09-07T03:22:55.131Z,7.22
2022-09-07T03:25:23.686Z,6.60
2022-09-07T03:27:51.679Z,7.10
2022-09-07T03:30:19.931Z,7.30
2022-09-07T03:32:48.343Z,6.03
2022-09-07T03:35:18.128Z,6.82
2022-09-07T03:37:46.167Z,6.93
2022-09-07T03:40:16.255Z,7.12
2022-09-07T03:42:44.515Z,6.60
2022-09-07T03:45:12.694Z,6.80
2022-09-07T03:47:41.303Z,6.43
2022-09-07T03:50:10.617Z,5.93
2022-09-07T03:52:40.182Z,6.97
2022-09-07T03:55:09.188Z,7.30
2022-09-07T03:57:37.266Z,6.78
2022-09-07T04:00:06.383Z,6.37
2022-09-07T04:02:40.559Z,6.45
2022-09-07T04:05:09.604Z,6.80
2022-09-07T04:07:37.778Z,6.45
2022-09-07T04:10:07.894Z,7.43
2022-09-07T04:12:36.098Z,7.35
2022-09-07T04:15:04.138Z,7.75
2022-09-07T04:17:32.028Z,6.55
2022-09-07T04:20:00.240Z,6.97
2022-09-07T04:22:28.181Z,7.35
2022-09-07T04:24:56.097Z,7.10
2022-09-07T04:27:25.551Z,6.10
2022-09-07T04:29:53.496Z,6.90
2022-09-07T04:32:21.546Z,6.65
2022-09-07T04:34:51.872Z,7.00
2022-09-07T04:37:19.806Z,7.57
2022-09-07T04:39:47.705Z,7.68
2022-09-07T04:42:15.945Z,7.37
2022-09-07T04:44:45.205Z,6.85
2022-09-07T04:47:13.145Z,6.70
2022-09-07T04:49:41.533Z,6.82
2022-09-07T04:52:09.599Z,6.43
2022-09-07T04:54:37.479Z,6.70
2022-09-07T04:57:06.082Z,7.90
2022-09-07T04:59:33.961Z,6.60
2022-09-07T05:02:03.192Z,6.87
2022-09-07T05:04:31.639Z,7.22
2022-09-07T05:06:59.590Z,6.68
2022-09-07T05:09:27.477Z,6.95
2022-09-07T05:11:55.762Z,7.12
2022-09-07T05:14:23.714Z,7.12
2022-09-07T05:16:51.802Z,6.40
2022-09-07T05:19:21.433Z,7.12
2022-09-07T05:21:49.418Z,7.18
2022-09-07T05:24:17.296Z,6.50
2022-09-07T05:26:45.468Z,6.82
2022-09-07T05:32:01.655Z,7.22
2022-09-07T05:34:31.318Z,7.47
2022-09-07T05:37:00.010Z,7.75
2022-09-07T05:39:28.551Z,7.28
2022-09-07T05:41:57.198Z,7.07
2022-09-07T05:47:13.654Z,7.00
2022-09-07T05:49:42.983Z,6.93
2022-09-07T05:52:10.856Z,8.63
2022-09-07T05:54:38.994Z,6.57
2022-09-07T05:57:07.242Z,8.25
2022-09-07T05:59:35.399Z,9.05
2022-09-07T06:02:03.775Z,8.48
2022-09-07T06:04:32.472Z,9.60
2022-09-07T06:12:37.899Z,9.40
2022-09-07T06:15:06.849Z,8.93
2022-09-07T06:17:34.813Z,8.50
2022-09-07T06:20:03.583Z,9.05
2022-09-07T06:22:33.083Z,8.55
2022-09-07T06:25:01.060Z,8.98
2022-09-07T06:27:29.424Z,9.50
2022-09-07T06:29:57.935Z,9.15
2022-09-07T06:35:15.491Z,8.88
2022-09-07T06:37:45.148Z,8.50
2022-09-07T06:40:13.391Z,8.95
2022-09-07T06:42:41.737Z,7.80
2022-09-07T06:45:11.603Z,9.38
2022-09-07T06:47:40.552Z,9.02
2022-09-07T06:50:10.106Z,8.57
2022-09-07T06:55:28.684Z,9.68
2022-09-07T06:57:56.583Z,9.23
2022-09-07T07:00:24.573Z,8.70
2022-09-07T07:02:52.798Z,8.52
2022-09-07T07:05:20.849Z,8.85
2022-09-07T07:07:48.721Z,8.27
2022-09-07T07:10:19.755Z,8.55
2022-09-07T07:12:52.999Z,7.43
2022-09-07T07:15:21.350Z,8.85
2022-09-07T07:17:56.079Z,8.02
2022-09-07T07:20:27.179Z,8.55
2022-09-07T07:22:58.156Z,8.73
2022-09-07T07:25:26.022Z,8.35
2022-09-07T07:27:55.558Z,8.05
2022-09-07T07:30:23.551Z,7.82
2022-09-07T07:32:51.655Z,7.78
2022-09-07T07:35:20.161Z,8.25
2022-09-07T07:37:48.103Z,8.23
2022-09-07T07:40:17.773Z,7.57
2022-09-07T07:42:48.771Z,8.07
2022-09-07T07:48:06.586Z,7.72
2022-09-07T07:50:34.769Z,7.70
2022-09-07T07:55:52.026Z,8.02
2022-09-07T07:58:20.181Z,8.40
2022-09-07T08:00:57.084Z,8.35
2022-09-07T08:03:26.427Z,8.77
2022-09-07T08:05:55.041Z,8.52
2022-09-07T08:08:24.430Z,8.30
2022-09-07T08:10:53.306Z,8.20
2022-09-07T08:13:21.742Z,7.80
2022-09-07T08:15:51.012Z,8.85
2022-09-07T08:18:21.574Z,7.93
2022-09-07T08:20:49.447Z,8.15
2022-09-07T08:23:17.811Z,7.82
2022-09-07T08:25:54.747Z,7.78
2022-09-07T08:28:23.774Z,7.75
2022-09-07T08:30:55.118Z,8.10
2022-09-07T08:33:23.045Z,8.63
2022-09-07T08:35:59.262Z,8.07
2022-09-07T08:38:27.776Z,8.00
2022-09-07T08:40:55.897Z,8.90
2022-09-07T08:43:47.110Z,8.65
2022-09-07T08:46:29.226Z,8.02
2022-09-07T08:49:00.825Z,8.10
2022-09-07T08:51:38.312Z,8.30
2022-09-07T08:54:07.135Z,8.40
2022-09-07T08:57:20.500Z,8.68
2022-09-07T08:59:39.000Z,8.93
2022-09-07T09:02:34.005Z,8.95
2022-09-07T09:05:18.498Z,9.10
2022-09-07T09:07:58.331Z,8.45
2022-09-07T09:10:35.660Z,8.93
2022-09-07T09:13:10.848Z,8.60
2022-09-07T09:15:52.165Z,8.50
2022-09-07T09:18:35.143Z,9.20
2022-09-07T09:21:03.526Z,7.60
2022-09-07T09:23:35.495Z,7.75
2022-09-07T09:26:08.585Z,7.90
2022-09-07T09:28:37.248Z,6.95
2022-09-07T09:31:05.877Z,6.85
2022-09-07T09:33:35.215Z,6.18
2022-09-07T09:36:03.696Z,7.28
2022-09-07T09:38:35.316Z,6.35
2022-09-07T09:41:08.327Z,7.25
2022-09-07T09:43:44.503Z,7.18
2022-09-07T09:46:20.397Z,6.75
2022-09-07T09:48:56.892Z,6.70
2022-09-07T09:54:25.795Z,6.68
2022-09-07T09:56:54.147Z,7.07
2022-09-07T10:05:28.231Z,7.55
2022-09-07T10:07:59.424Z,6.85
2022-09-07T10:10:29.474Z,6.75
2022-09-07T10:12:57.549Z,7.18
2022-09-07T10:15:40.206Z,8.07
2022-09-07T10:18:23.302Z,6.95
2022-09-07T10:20:52.461Z,6.60
2022-09-07T10:23:23.588Z,7.45
2022-09-07T10:25:51.928Z,6.12
2022-09-07T10:28:22.555Z,7.32
2022-09-07T10:31:10.014Z,6.62
2022-09-07T10:36:46.019Z,6.22
2022-09-07T10:39:18.194Z,6.07
2022-09-07T10:41:55.855Z,5.75
2022-09-07T10:44:36.278Z,6.18
2022-09-07T10:47:25.686Z,4.90
2022-09-07T10:52:55.524Z,4.70
2022-09-07T10:55:29.851Z,3.83
2022-09-07T10:58:08.912Z,4.43
2022-09-07T11:00:44.543Z,4.82
2022-09-07T11:03:35.406Z,3.40
2022-09-07T11:06:15.157Z,3.60
2022-09-07T11:09:17.807Z,3.30
2022-09-07T11:12:03.062Z,2.80
2022-09-07T11:14:37.716Z,3.20
2022-09-07T11:17:14.088Z,3.70
2022-09-07T11:19:49.482Z,3.42
2022-09-07T11:22:28.864Z,4.57
2022-09-07T11:27:57.872Z,3.87
2022-09-07T11:30:31.200Z,3.25
2022-09-07T11:33:04.463Z,3.85
2022-09-07T11:35:37.753Z,3.22
2022-09-07T11:38:15.202Z,2.67
2022-09-07T11:40:56.697Z,2.70
2022-09-07T11:43:30.806Z,3.03
2022-09-07T11:46:07.396Z,2.53
2022-09-07T11:48:42.700Z,2.37
2022-09-07T11:51:16.634Z,2.35
2022-09-07T11:53:51.038Z,2.60
2022-09-07T11:56:26.947Z,2.83
2022-09-07T11:59:06.198Z,2.85
2022-09-07T12:01:46.429Z,2.72
2022-09-07T12:04:31.399Z,3.00
2022-09-07T12:07:19.880Z,2.70
2022-09-07T12:10:07.945Z,2.75
2022-09-07T12:12:57.579Z,2.87
2022-09-07T12:15:37.338Z,2.62
2022-09-07T12:18:23.056Z,3.05
2022-09-07T12:20:51.476Z,2.67
2022-09-07T12:23:25.582Z,3.10
2022-09-07T12:25:54.971Z,2.70
2022-09-07T12:28:56.040Z,3.17
2022-09-07T12:31:57.206Z,3.28
2022-09-07T12:34:53.618Z,3.03
2022-09-07T12:37:39.742Z,3.00
2022-09-07T12:40:47.209Z,2.92
2022-09-07T12:44:17.813Z,2.85
2022-09-07T12:46:56.937Z,2.83
2022-09-07T12:49:58.891Z,3.72
2022-09-07T12:52:46.207Z,2.78
2022-09-07T12:55:28.950Z,3.20
2022-09-07T12:58:11.060Z,3.12
2022-09-07T13:00:57.733Z,3.37
2022-09-07T13:03:51.728Z,2.78
2022-09-07T13:09:31.926Z,2.72
2022-09-07T13:12:01.184Z,2.97
2022-09-07T13:14:30.245Z,3.45
2022-09-07T13:17:42.670Z,2.62
2022-09-07T13:20:30.255Z,2.90
2022-09-07T13:23:21.737Z,2.70
2022-09-07T13:25:55.902Z,3.37
2022-09-07T13:28:51.890Z,2.62
2022-09-07T13:31:49.445Z,2.67
2022-09-07T13:34:53.960Z,2.83
2022-09-07T13:37:25.346Z,2.80
2022-09-07T13:39:57.185Z,2.50
2022-09-07T13:42:28.904Z,2.60
2022-09-07T13:44:58.516Z,2.65
2022-09-07T13:47:42.832Z,2.45
2022-09-07T13:50:23.962Z,2.30
2022-09-07T13:53:16.170Z,2.30
2022-09-07T13:55:52.805Z,2.28
2022-09-07T13:58:30.329Z,2.15
2022-09-07T14:01:02.311Z,2.12
2022-09-07T14:03:37.764Z,2.40
2022-09-07T14:06:33.175Z,2.12
2022-09-07T14:09:07.039Z,2.67
2022-09-07T14:11:42.559Z,2.50
2022-09-07T14:14:14.181Z,2.30
2022-09-07T14:16:44.829Z,2.62
2022-09-07T14:19:18.078Z,1.87
2022-09-07T14:21:54.931Z,2.03
2022-09-07T14:24:32.068Z,1.95
2022-09-07T14:27:00.686Z,1.48
2022-09-07T14:29:31.497Z,1.77
2022-09-07T14:32:01.563Z,1.42
2022-09-07T14:34:33.790Z,1.60
2022-09-07T14:37:05.928Z,1.83
2022-09-07T14:39:40.101Z,1.87
2022-09-07T14:42:11.495Z,1.73
2022-09-07T14:44:43.184Z,1.92
2022-09-07T14:47:29.115Z,1.83
2022-09-07T14:50:05.991Z,1.58
2022-09-07T14:52:43.387Z,1.98
2022-09-07T14:55:33.412Z,1.62
2022-09-07T14:58:21.042Z,1.77
2022-09-07T15:04:02.452Z,1.87
2022-09-07T15:09:30.718Z,2.50
2022-09-07T15:12:18.273Z,2.70
2022-09-07T15:14:47.551Z,2.28
2022-09-07T15:20:32.613Z,2.15
2022-09-07T15:23:01.235Z,2.40
2022-09-07T15:25:30.481Z,2.00
2022-09-07T15:27:59.865Z,2.10
2022-09-07T15:30:28.162Z,2.33
2022-09-07T15:32:57.341Z,2.40
2022-09-07T15:35:25.895Z,2.72
2022-09-07T15:38:02.424Z,2.42
2022-09-07T15:40:37.592Z,2.62
2022-09-07T15:43:30.062Z,2.67
2022-09-07T15:45:55.511Z,2.67
2022-09-07T15:48:25.308Z,2.50
2022-09-07T15:51:02.443Z,2.97
2022-09-07T15:56:20.314Z,2.45
2022-09-07T15:58:53.779Z,2.55
2022-09-07T16:04:17.106Z,2.72
2022-09-07T16:06:48.246Z,3.12
2022-09-07T16:09:17.505Z,2.35
2022-09-07T16:11:46.153Z,2.60
2022-09-07T16:14:15.466Z,2.62
2022-09-07T16:19:35.106Z,2.42
2022-09-07T16:22:03.550Z,2.65
2022-09-07T16:24:31.533Z,2.72
2022-09-07T16:26:59.390Z,2.53
2022-09-07T16:29:28.934Z,2.72
2022-09-07T16:34:45.020Z,2.20
2022-09-07T16:37:13.079Z,2.35
2022-09-07T16:39:41.828Z,3.00
2022-09-07T16:42:10.068Z,3.05
2022-09-07T16:44:39.518Z,2.60
2022-09-07T16:47:08.099Z,2.40
2022-09-07T16:49:36.244Z,2.55
2022-09-07T16:52:05.267Z,2.30
2022-09-07T16:54:33.105Z,2.90
2022-09-07T16:57:01.211Z,2.90
2022-09-07T16:59:29.085Z,2.78
2022-09-07T17:01:58.295Z,2.75
2022-09-07T17:04:26.583Z,2.53
2022-09-07T17:06:54.566Z,2.55
2022-09-07T17:09:26.619Z,3.50
2022-09-07T17:11:54.772Z,3.28
2022-09-07T17:14:22.718Z,3.12
2022-09-07T17:16:50.944Z,2.30
2022-09-07T17:19:29.477Z,2.83
2022-09-07T17:21:59.618Z,2.50
2022-09-07T17:24:27.803Z,2.87
2022-09-07T17:26:55.807Z,3.28
2022-09-07T17:29:23.698Z,3.97
2022-09-07T17:34:41.106Z,3.40
2022-09-07T17:37:10.118Z,3.10
2022-09-07T17:39:38.860Z,3.72
2022-09-07T17:42:07.532Z,3.12
2022-09-07T17:44:38.294Z,2.97
2022-09-07T17:47:06.855Z,2.50
2022-09-07T17:49:35.293Z,3.47
2022-09-07T17:52:06.510Z,3.87
2022-09-07T17:54:34.487Z,4.93
2022-09-07T17:57:03.239Z,3.25
2022-09-07T18:02:24.427Z,1.90
2022-09-07T18:04:52.574Z,1.85
2022-09-07T18:07:21.765Z,2.42
2022-09-07T18:09:49.659Z,2.33
2022-09-07T18:12:17.854Z,2.53
2022-09-07T18:14:45.667Z,3.05
2022-09-07T18:17:13.631Z,3.22
2022-09-07T18:19:41.722Z,2.62
2022-09-07T18:22:09.589Z,3.75
2022-09-07T18:24:38.816Z,3.67
2022-09-07T18:27:07.783Z,3.05
2022-09-07T18:29:35.654Z,3.62
2022-09-07T18:32:08.500Z,2.33
2022-09-07T18:34:37.568Z,2.42
2022-09-07T18:37:06.055Z,2.50
2022-09-07T18:39:35.654Z,2.08
2022-09-07T18:42:07.623Z,1.50
2022-09-07T18:47:28.880Z,1.40
2022-09-07T18:49:58.131Z,1.80
2022-09-07T18:55:16.684Z,2.05
2022-09-07T18:57:46.084Z,1.62
2022-09-07T19:00:14.701Z,1.30
2022-09-07T19:02:42.919Z,1.40
2022-09-07T19:08:03.128Z,1.10
2022-09-07T19:10:35.022Z,1.00
2022-09-07T19:13:04.733Z,0.95
2022-09-07T19:15:37.425Z,0.80
2022-09-07T19:18:07.752Z,0.80
2022-09-07T19:20:36.563Z,1.12
2022-09-07T19:23:04.626Z,1.02
2022-09-07T19:25:32.572Z,0.52
2022-09-07T19:28:00.687Z,0.70
2022-09-07T19:30:30.399Z,0.93
2022-09-07T19:33:02.114Z,1.17
2022-09-07T19:35:36.065Z,0.90
2022-09-07T19:38:03.977Z,1.40
2022-09-07T19:40:32.064Z,0.75
2022-09-07T19:42:59.966Z,0.98
2022-09-07T19:45:28.370Z,1.02
2022-09-07T19:47:57.821Z,0.88
2022-09-07T19:50:25.961Z,1.10
2022-09-07T19:52:53.812Z,0.80
2022-09-07T19:55:21.924Z,0.80
2022-09-07T19:57:51.275Z,1.35
2022-09-07T20:00:19.426Z,0.95
2022-09-07T20:02:48.994Z,1.08
2022-09-07T20:05:19.116Z,1.00
2022-09-07T20:07:47.334Z,1.10
2022-09-07T20:10:15.696Z,1.05
2022-09-07T20:12:43.598Z,1.15
2022-09-07T20:15:12.042Z,1.10
2022-09-07T20:17:39.926Z,0.98
2022-09-07T20:20:08.994Z,0.80
2022-09-07T20:22:38.597Z,1.10
2022-09-07T20:25:11.316Z,1.00
2022-09-07T20:27:41.389Z,1.10
2022-09-07T20:30:10.303Z,1.60
2022-09-07T20:32:38.223Z,1.08
2022-09-07T20:35:07.050Z,1.00
2022-09-07T20:37:35.117Z,0.90
2022-09-07T20:40:06.310Z,0.95
2022-09-07T20:42:34.501Z,1.20
2022-09-07T20:45:03.060Z,1.15
2022-09-07T20:47:30.879Z,1.10
2022-09-07T20:49:58.947Z,0.93
2022-09-07T20:52:27.094Z,1.00
2022-09-07T20:54:54.908Z,1.12
2022-09-07T20:57:24.687Z,0.85
2022-09-07T20:59:52.871Z,0.85
2022-09-07T21:02:20.798Z,1.25
2022-09-07T21:04:48.946Z,1.08
2022-09-07T21:07:16.788Z,1.17
2022-09-07T21:09:44.596Z,1.10
2022-09-07T21:12:12.750Z,1.37
2022-09-07T21:14:41.970Z,1.02
2022-09-07T21:17:09.845Z,0.98
2022-09-07T21:19:38.053Z,1.00
2022-09-07T21:22:06.046Z,1.17
2022-09-07T21:24:34.002Z,0.85
2022-09-07T21:27:02.055Z,1.15
2022-09-07T21:29:30.061Z,1.02
2022-09-07T21:31:59.228Z,1.33
2022-09-07T21:34:27.354Z,1.20
2022-09-07T21:36:55.168Z,1.10
2022-09-07T21:39:23.042Z,1.20
2022-09-07T21:41:51.133Z,1.30
2022-09-07T21:44:19.149Z,0.98
2022-09-07T21:46:47.146Z,1.00
2022-09-07T21:49:16.546Z,1.10
2022-09-07T21:51:44.486Z,1.30
2022-09-07T21:54:12.357Z,1.25
2022-09-07T21:56:45.868Z,1.20
2022-09-07T21:59:14.636Z,0.90
2022-09-07T22:01:42.729Z,1.30
2022-09-07T22:04:12.039Z,1.10
2022-09-07T22:06:41.455Z,1.17
2022-09-07T22:09:09.292Z,1.00
2022-09-07T22:11:37.553Z,0.85
2022-09-07T22:14:07.144Z,1.20
2022-09-07T22:16:36.090Z,1.15
2022-09-07T22:19:04.693Z,1.10
2022-09-07T22:21:32.988Z,1.40
2022-09-07T22:24:04.200Z,1.05
2022-09-07T22:26:37.482Z,1.10
2022-09-07T22:29:06.530Z,1.30
2022-09-07T22:31:36.580Z,1.40
2022-09-07T22:34:07.922Z,2.10
2022-09-07T22:36:37.395Z,1.80
2022-09-07T22:39:09.993Z,1.73
2022-09-07T22:41:39.456Z,1.90
2022-09-07T22:44:09.203Z,2.12
2022-09-07T22:46:39.337Z,2.05
2022-09-07T22:49:08.915Z,2.40
2022-09-07T22:51:37.047Z,2.08
2022-09-07T22:54:06.997Z,2.55
2022-09-07T22:56:35.751Z,2.70
2022-09-07T22:59:07.382Z,2.80
2022-09-07T23:01:36.463Z,3.42
2022-09-07T23:04:05.949Z,2.47
2022-09-07T23:06:35.886Z,1.90
2022-09-07T23:09:07.823Z,2.08
2022-09-07T23:11:35.727Z,1.62
2022-09-07T23:14:06.495Z,1.35
2022-09-07T23:16:34.996Z,2.30
2022-09-07T23:19:03.223Z,2.17
2022-09-07T23:21:31.233Z,2.22
2022-09-07T23:24:00.752Z,2.08
2022-09-07T23:26:32.148Z,2.80
2022-09-07T23:29:02.183Z,2.42
2022-09-07T23:31:32.604Z,1.80
2022-09-07T23:34:01.901Z,2.33
2022-09-07T23:36:30.027Z,1.77
2022-09-07T23:38:59.707Z,2.65
2022-09-07T23:41:28.639Z,2.80
2022-09-07T23:43:58.638Z,2.58
2022-09-07T23:46:26.892Z,2.42
2022-09-07T23:48:54.884Z,3.22
2022-09-07T23:51:24.526Z,2.78
2022-09-07T23:53:53.942Z,3.50
2022-09-07T23:56:24.278Z,2.60
2022-09-07T23:58:52.679Z,1.90
